sensor_id;sensor_type;location;lat;lon;timestamp;noise_LAeq;noise_LA_min;noise_LA_max;noise_LA01;noise_LA95
60031;Laerm;45901;47.600;9.890;2023-02-15T00:01:36;39.93;36.69;45.39;;
60031;Laerm;45901;47.600;9.890;2023-02-15T00:04:05;39.67;36.20;41.89;;
60031;Laerm;45901;47.600;9.890;2023-02-15T00:06:35;39.64;36.91;41.82;;
60031;Laerm;45901;47.600;9.890;2023-02-15T00:09:02;39.66;36.91;41.53;;
60031;Laerm;45901;47.600;9.890;2023-02-15T00:11:30;39.60;36.69;41.96;;
60031;Laerm;45901;47.600;9.890;2023-02-15T00:14:08;39.66;37.32;41.75;;
60031;Laerm;45901;47.600;9.890;2023-02-15T00:16:36;39.77;37.12;44.94;;
60031;Laerm;45901;47.600;9.890;2023-02-15T00:19:04;39.63;37.12;41.46;;
60031;Laerm;45901;47.600;9.890;2023-02-15T00:21:35;39.73;37.12;41.68;;
60031;Laerm;45901;47.600;9.890;2023-02-15T00:24:05;39.76;37.32;41.46;;
60031;Laerm;45901;47.600;9.890;2023-02-15T00:26:32;39.69;36.91;41.68;;
60031;Laerm;45901;47.600;9.890;2023-02-15T00:29:00;39.64;36.69;41.61;;
60031;Laerm;45901;47.600;9.890;2023-02-15T00:31:31;39.70;36.91;44.58;;
60031;Laerm;45901;47.600;9.890;2023-02-15T00:34:01;39.60;36.45;41.53;;
60031;Laerm;45901;47.600;9.890;2023-02-15T00:36:29;39.64;36.20;41.53;;
60031;Laerm;45901;47.600;9.890;2023-02-15T00:38:57;39.64;36.69;41.53;;
60031;Laerm;45901;47.600;9.890;2023-02-15T00:41:25;39.62;36.91;41.75;;
60031;Laerm;45901;47.600;9.890;2023-02-15T00:43:52;39.64;37.32;41.53;;
60031;Laerm;45901;47.600;9.890;2023-02-15T00:46:19;39.78;37.12;45.11;;
60031;Laerm;45901;47.600;9.890;2023-02-15T00:48:47;39.63;36.69;41.82;;
60031;Laerm;45901;47.600;9.890;2023-02-15T00:51:14;39.65;36.69;41.61;;
60031;Laerm;45901;47.600;9.890;2023-02-15T00:53:43;39.63;36.69;41.82;;
60031;Laerm;45901;47.600;9.890;2023-02-15T00:56:12;39.81;36.20;42.16;;
60031;Laerm;45901;47.600;9.890;2023-02-15T00:58:39;39.70;37.32;41.53;;
60031;Laerm;45901;47.600;9.890;2023-02-15T01:01:08;39.96;37.12;45.75;;
60031;Laerm;45901;47.600;9.890;2023-02-15T01:03:36;39.63;36.91;41.46;;
60031;Laerm;45901;47.600;9.890;2023-02-15T01:06:04;39.65;37.12;41.68;;
60031;Laerm;45901;47.600;9.890;2023-02-15T01:08:32;39.72;36.91;43.39;;
60031;Laerm;45901;47.600;9.890;2023-02-15T01:11:04;39.62;36.91;41.75;;
60031;Laerm;45901;47.600;9.890;2023-02-15T01:13:33;39.64;36.91;41.38;;
60031;Laerm;45901;47.600;9.890;2023-02-15T01:16:00;39.80;37.32;44.80;;
60031;Laerm;45901;47.600;9.890;2023-02-15T01:18:28;39.63;36.69;41.46;;
60031;Laerm;45901;47.600;9.890;2023-02-15T01:20:56;39.63;37.12;41.38;;
60031;Laerm;45901;47.600;9.890;2023-02-15T01:23:23;39.62;36.69;41.46;;
60031;Laerm;45901;47.600;9.890;2023-02-15T01:25:50;39.60;37.32;41.68;;
60031;Laerm;45901;47.600;9.890;2023-02-15T01:28:17;39.70;37.12;41.96;;
60031;Laerm;45901;47.600;9.890;2023-02-15T01:30:46;39.81;37.12;45.75;;
60031;Laerm;45901;47.600;9.890;2023-02-15T01:33:13;39.76;36.91;41.61;;
60031;Laerm;45901;47.600;9.890;2023-02-15T01:35:44;39.77;36.69;41.75;;
60031;Laerm;45901;47.600;9.890;2023-02-15T01:38:12;39.79;36.69;41.53;;
60031;Laerm;45901;47.600;9.890;2023-02-15T01:40:40;39.84;37.12;41.68;;
60031;Laerm;45901;47.600;9.890;2023-02-15T01:43:10;39.80;37.32;41.75;;
60031;Laerm;45901;47.600;9.890;2023-02-15T01:45:38;39.85;36.91;45.60;;
60031;Laerm;45901;47.600;9.890;2023-02-15T01:48:19;39.70;37.32;41.53;;
60031;Laerm;45901;47.600;9.890;2023-02-15T01:50:51;39.72;37.12;41.89;;
60031;Laerm;45901;47.600;9.890;2023-02-15T01:53:24;39.73;37.12;41.53;;
60031;Laerm;45901;47.600;9.890;2023-02-15T01:55:57;39.75;36.69;41.68;;
60031;Laerm;45901;47.600;9.890;2023-02-15T01:58:28;39.77;37.12;41.61;;
60031;Laerm;45901;47.600;9.890;2023-02-15T02:00:58;40.08;37.32;44.97;;
60031;Laerm;45901;47.600;9.890;2023-02-15T02:03:38;39.80;37.32;41.61;;
60031;Laerm;45901;47.600;9.890;2023-02-15T02:06:10;39.75;36.91;41.68;;
60031;Laerm;45901;47.600;9.890;2023-02-15T02:08:38;39.73;37.32;41.53;;
60031;Laerm;45901;47.600;9.890;2023-02-15T02:11:10;39.74;37.12;41.61;;
60031;Laerm;45901;47.600;9.890;2023-02-15T02:13:38;39.69;36.91;41.89;;
60031;Laerm;45901;47.600;9.890;2023-02-15T02:16:12;39.75;36.91;45.27;;
60031;Laerm;45901;47.600;9.890;2023-02-15T02:19:04;39.70;36.91;41.89;;
60031;Laerm;45901;47.600;9.890;2023-02-15T02:22:23;39.69;36.91;41.68;;
60031;Laerm;45901;47.600;9.890;2023-02-15T02:25:21;39.76;36.91;41.75;;
60031;Laerm;45901;47.600;9.890;2023-02-15T02:27:57;39.79;37.52;41.61;;
60031;Laerm;45901;47.600;9.890;2023-02-15T02:30:58;39.78;37.12;44.62;;
60031;Laerm;45901;47.600;9.890;2023-02-15T02:33:57;39.69;36.91;41.68;;
60031;Laerm;45901;47.600;9.890;2023-02-15T02:36:35;39.77;37.32;41.82;;
60031;Laerm;45901;47.600;9.890;2023-02-15T02:39:16;39.78;36.91;41.61;;
60031;Laerm;45901;47.600;9.890;2023-02-15T02:41:55;39.81;37.32;41.82;;
60031;Laerm;45901;47.600;9.890;2023-02-15T02:44:27;39.85;37.12;41.82;;
60031;Laerm;45901;47.600;9.890;2023-02-15T02:47:01;39.92;37.32;46.07;;
60031;Laerm;45901;47.600;9.890;2023-02-15T02:49:35;39.77;37.12;41.75;;
60031;Laerm;45901;47.600;9.890;2023-02-15T02:52:06;40.03;37.12;47.77;;
60031;Laerm;45901;47.600;9.890;2023-02-15T02:54:35;39.83;37.12;41.61;;
60031;Laerm;45901;47.600;9.890;2023-02-15T02:57:05;39.80;37.52;41.68;;
60031;Laerm;45901;47.600;9.890;2023-02-15T02:59:40;39.84;37.32;45.11;;
60031;Laerm;45901;47.600;9.890;2023-02-15T03:02:13;40.05;37.12;45.27;;
60031;Laerm;45901;47.600;9.890;2023-02-15T03:04:49;39.82;37.32;42.53;;
60031;Laerm;45901;47.600;9.890;2023-02-15T03:07:26;39.83;37.12;41.75;;
60031;Laerm;45901;47.600;9.890;2023-02-15T03:09:57;39.85;37.32;41.75;;
60031;Laerm;45901;47.600;9.890;2023-02-15T03:12:29;39.82;37.12;41.82;;
60031;Laerm;45901;47.600;9.890;2023-02-15T03:15:03;39.81;36.91;45.11;;
60031;Laerm;45901;47.600;9.890;2023-02-15T03:17:33;39.80;37.12;41.61;;
60031;Laerm;45901;47.600;9.890;2023-02-15T03:20:07;39.78;37.52;41.61;;
60031;Laerm;45901;47.600;9.890;2023-02-15T03:22:39;39.75;36.77;41.75;;
60031;Laerm;45901;47.600;9.890;2023-02-15T03:25:13;39.76;37.32;41.68;;
60031;Laerm;45901;47.600;9.890;2023-02-15T03:27:46;39.79;37.52;41.96;;
60031;Laerm;45901;47.600;9.890;2023-02-15T03:30:19;39.90;37.52;45.72;;
60031;Laerm;45901;47.600;9.890;2023-02-15T03:32:48;39.84;37.12;41.89;;
60031;Laerm;45901;47.600;9.890;2023-02-15T03:35:23;39.80;37.12;41.75;;
60031;Laerm;45901;47.600;9.890;2023-02-15T03:37:56;39.76;37.52;41.68;;
60031;Laerm;45901;47.600;9.890;2023-02-15T03:40:29;39.78;37.12;41.82;;
60031;Laerm;45901;47.600;9.890;2023-02-15T03:43:21;39.88;37.12;42.65;;
60031;Laerm;45901;47.600;9.890;2023-02-15T03:45:52;39.98;37.32;45.23;;
60031;Laerm;45901;47.600;9.890;2023-02-15T03:48:27;39.87;37.32;41.61;;
60031;Laerm;45901;47.600;9.890;2023-02-15T03:51:01;40.03;37.52;42.09;;
60031;Laerm;45901;47.600;9.890;2023-02-15T03:53:49;39.84;37.52;41.82;;
60031;Laerm;45901;47.600;9.890;2023-02-15T03:56:17;39.82;37.52;41.75;;
60031;Laerm;45901;47.600;9.890;2023-02-15T03:58:44;39.87;37.17;41.96;;
60031;Laerm;45901;47.600;9.890;2023-02-15T04:01:35;40.20;37.32;45.45;;
60031;Laerm;45901;47.600;9.890;2023-02-15T04:04:31;40.02;37.70;42.71;;
60031;Laerm;45901;47.600;9.890;2023-02-15T04:07:00;39.79;37.12;41.55;;
60031;Laerm;45901;47.600;9.890;2023-02-15T04:09:28;39.87;37.12;41.82;;
60031;Laerm;45901;47.600;9.890;2023-02-15T04:12:13;39.91;37.32;41.53;;
60031;Laerm;45901;47.600;9.890;2023-02-15T04:14:40;40.10;37.32;45.20;;
60031;Laerm;45901;47.600;9.890;2023-02-15T04:17:25;40.00;37.32;43.90;;
60031;Laerm;45901;47.600;9.890;2023-02-15T04:19:52;40.05;37.32;41.82;;
60031;Laerm;45901;47.600;9.890;2023-02-15T04:22:37;40.08;37.32;42.35;;
60031;Laerm;45901;47.600;9.890;2023-02-15T04:25:22;39.94;37.32;41.89;;
60031;Laerm;45901;47.600;9.890;2023-02-15T04:27:51;39.98;36.91;41.75;;
60031;Laerm;45901;47.600;9.890;2023-02-15T04:30:20;40.05;37.32;45.17;;
60031;Laerm;45901;47.600;9.890;2023-02-15T04:32:48;39.95;36.69;42.41;;
60031;Laerm;45901;47.600;9.890;2023-02-15T04:35:16;40.10;37.12;42.41;;
60031;Laerm;45901;47.600;9.890;2023-02-15T04:37:44;40.04;37.52;41.82;;
60031;Laerm;45901;47.600;9.890;2023-02-15T04:40:14;39.89;37.12;42.47;;
60031;Laerm;45901;47.600;9.890;2023-02-15T04:42:41;39.85;37.12;41.61;;
60031;Laerm;45901;47.600;9.890;2023-02-15T04:45:09;40.11;37.12;45.51;;
60031;Laerm;45901;47.600;9.890;2023-02-15T04:47:36;40.22;37.70;44.11;;
60031;Laerm;45901;47.600;9.890;2023-02-15T04:50:04;40.11;37.70;44.15;;
60031;Laerm;45901;47.600;9.890;2023-02-15T04:52:32;40.04;37.53;42.53;;
60031;Laerm;45901;47.600;9.890;2023-02-15T04:55:00;39.96;37.70;41.82;;
60031;Laerm;45901;47.600;9.890;2023-02-15T04:57:28;39.94;37.32;42.09;;
60031;Laerm;45901;47.600;9.890;2023-02-15T04:59:55;40.49;37.52;46.40;;
60031;Laerm;45901;47.600;9.890;2023-02-15T05:02:23;40.31;37.52;44.76;;
60031;Laerm;45901;47.600;9.890;2023-02-15T05:04:50;40.82;37.52;44.39;;
60031;Laerm;45901;47.600;9.890;2023-02-15T05:07:17;40.45;37.87;42.35;;
60031;Laerm;45901;47.600;9.890;2023-02-15T05:09:46;40.39;37.70;44.94;;
60031;Laerm;45901;47.600;9.890;2023-02-15T05:12:14;39.96;37.52;41.68;;
60031;Laerm;45901;47.600;9.890;2023-02-15T05:14:41;40.15;37.32;45.20;;
60031;Laerm;45901;47.600;9.890;2023-02-15T05:17:08;40.11;37.52;42.03;;
60031;Laerm;45901;47.600;9.890;2023-02-15T05:19:35;39.96;37.52;41.82;;
60031;Laerm;45901;47.600;9.890;2023-02-15T05:22:03;40.02;37.70;42.00;;
60031;Laerm;45901;47.600;9.890;2023-02-15T05:24:30;40.19;37.52;43.77;;
60031;Laerm;45901;47.600;9.890;2023-02-15T05:27:16;40.07;37.12;43.19;;
60031;Laerm;45901;47.600;9.890;2023-02-15T05:30:15;40.11;37.52;45.99;;
60031;Laerm;45901;47.600;9.890;2023-02-15T05:32:42;39.92;37.70;41.89;;
60031;Laerm;45901;47.600;9.890;2023-02-15T05:35:13;40.23;37.53;44.03;;
60031;Laerm;45901;47.600;9.890;2023-02-15T05:37:41;40.23;37.70;45.72;;
60031;Laerm;45901;47.600;9.890;2023-02-15T05:40:09;40.06;37.32;42.71;;
60031;Laerm;45901;47.600;9.890;2023-02-15T05:42:38;40.21;37.70;45.07;;
60031;Laerm;45901;47.600;9.890;2023-02-15T05:45:06;40.23;37.32;46.38;;
60031;Laerm;45901;47.600;9.890;2023-02-15T05:47:34;40.02;37.52;41.82;;
60031;Laerm;45901;47.600;9.890;2023-02-15T05:50:01;40.15;37.52;45.30;;
60031;Laerm;45901;47.600;9.890;2023-02-15T05:52:28;40.08;37.52;43.72;;
60031;Laerm;45901;47.600;9.890;2023-02-15T05:54:55;40.29;38.05;44.51;;
60031;Laerm;45901;47.600;9.890;2023-02-15T05:57:23;40.25;37.88;42.35;;
60031;Laerm;45901;47.600;9.890;2023-02-15T05:59:52;40.54;37.70;45.66;;
60031;Laerm;45901;47.600;9.890;2023-02-15T06:02:19;40.57;37.88;45.17;;
60031;Laerm;45901;47.600;9.890;2023-02-15T06:04:46;40.54;38.05;49.53;;
60031;Laerm;45901;47.600;9.890;2023-02-15T06:07:14;40.69;37.88;53.54;;
60031;Laerm;45901;47.600;9.890;2023-02-15T06:09:41;41.31;38.52;55.55;;
60031;Laerm;45901;47.600;9.890;2023-02-15T06:12:08;40.70;38.05;44.62;;
60031;Laerm;45901;47.600;9.890;2023-02-15T06:14:35;41.06;38.67;46.05;;
60031;Laerm;45901;47.600;9.890;2023-02-15T06:17:03;41.55;39.21;47.54;;
60031;Laerm;45901;47.600;9.890;2023-02-15T06:19:31;41.22;38.81;53.84;;
60031;Laerm;45901;47.600;9.890;2023-02-15T06:21:58;41.36;39.34;44.76;;
60031;Laerm;45901;47.600;9.890;2023-02-15T06:24:25;40.70;37.70;45.39;;
60031;Laerm;45901;47.600;9.890;2023-02-15T06:26:52;40.44;38.05;50.70;;
60031;Laerm;45901;47.600;9.890;2023-02-15T06:29:19;40.64;38.21;46.73;;
60031;Laerm;45901;47.600;9.890;2023-02-15T06:31:46;40.57;38.21;46.10;;
60031;Laerm;45901;47.600;9.890;2023-02-15T06:34:15;40.45;37.70;45.45;;
60031;Laerm;45901;47.600;9.890;2023-02-15T06:36:43;40.46;37.70;48.88;;
60031;Laerm;45901;47.600;9.890;2023-02-15T06:39:10;40.48;38.05;43.77;;
60031;Laerm;45901;47.600;9.890;2023-02-15T06:41:37;40.46;37.88;46.38;;
60031;Laerm;45901;47.600;9.890;2023-02-15T06:44:04;40.73;37.52;45.51;;
60031;Laerm;45901;47.600;9.890;2023-02-15T06:46:32;40.66;37.88;45.48;;
60031;Laerm;45901;47.600;9.890;2023-02-15T06:48:59;40.86;38.21;55.01;;
60031;Laerm;45901;47.600;9.890;2023-02-15T06:51:27;41.43;38.05;45.86;;
60031;Laerm;45901;47.600;9.890;2023-02-15T06:53:54;42.59;38.81;46.76;;
60031;Laerm;45901;47.600;9.890;2023-02-15T06:56:22;40.32;37.88;43.77;;
60031;Laerm;45901;47.600;9.890;2023-02-15T06:58:49;40.44;37.70;47.61;;
60031;Laerm;45901;47.600;9.890;2023-02-15T07:01:16;40.87;38.32;45.57;;
60031;Laerm;45901;47.600;9.890;2023-02-15T07:03:43;40.75;38.21;50.11;;
60031;Laerm;45901;47.600;9.890;2023-02-15T07:06:11;40.43;38.21;44.19;;
60031;Laerm;45901;47.600;9.890;2023-02-15T07:08:40;40.28;37.53;50.75;;
60031;Laerm;45901;47.600;9.890;2023-02-15T07:11:07;40.18;37.32;42.76;;
60031;Laerm;45901;47.600;9.890;2023-02-15T07:13:52;40.09;37.52;42.53;;
60031;Laerm;45901;47.600;9.890;2023-02-15T07:16:19;43.67;37.52;50.81;;
60031;Laerm;45901;47.600;9.890;2023-02-15T07:18:48;42.68;37.52;50.15;;
60031;Laerm;45901;47.600;9.890;2023-02-15T07:21:15;40.60;37.70;44.65;;
60031;Laerm;45901;47.600;9.890;2023-02-15T07:23:43;40.41;37.88;44.15;;
60031;Laerm;45901;47.600;9.890;2023-02-15T07:26:11;45.58;38.05;52.33;;
60031;Laerm;45901;47.600;9.890;2023-02-15T07:28:38;45.39;38.05;52.40;;
60031;Laerm;45901;47.600;9.890;2023-02-15T07:31:05;40.35;37.70;44.39;;
60031;Laerm;45901;47.600;9.890;2023-02-15T07:33:34;40.53;38.05;42.98;;
60031;Laerm;45901;47.600;9.890;2023-02-15T07:36:03;40.59;38.21;49.71;;
60031;Laerm;45901;47.600;9.890;2023-02-15T07:38:33;40.64;38.37;45.83;;
60031;Laerm;45901;47.600;9.890;2023-02-15T07:41:04;40.62;38.05;51.89;;
60031;Laerm;45901;47.600;9.890;2023-02-15T07:43:34;40.74;38.52;45.23;;
60031;Laerm;45901;47.600;9.890;2023-02-15T07:46:03;40.51;37.52;45.20;;
60031;Laerm;45901;47.600;9.890;2023-02-15T07:48:32;39.97;37.32;42.16;;
60031;Laerm;45901;47.600;9.890;2023-02-15T07:50:59;40.50;37.52;44.23;;
60031;Laerm;45901;47.600;9.890;2023-02-15T07:53:27;41.01;37.70;44.31;;
60031;Laerm;45901;47.600;9.890;2023-02-15T07:55:54;40.14;37.32;43.81;;
60031;Laerm;45901;47.600;9.890;2023-02-15T07:58:26;40.05;37.52;42.59;;
60031;Laerm;45901;47.600;9.890;2023-02-15T08:01:13;41.19;37.12;47.24;;
60031;Laerm;45901;47.600;9.890;2023-02-15T08:03:41;39.90;37.32;41.89;;
60031;Laerm;45901;47.600;9.890;2023-02-15T08:06:08;40.02;37.70;42.35;;
60031;Laerm;45901;47.600;9.890;2023-02-15T08:08:37;39.95;37.52;42.53;;
60031;Laerm;45901;47.600;9.890;2023-02-15T08:11:13;39.92;37.52;41.82;;
60031;Laerm;45901;47.600;9.890;2023-02-15T08:13:58;40.12;37.70;44.19;;
60031;Laerm;45901;47.600;9.890;2023-02-15T08:16:29;40.47;37.52;44.43;;
60031;Laerm;45901;47.600;9.890;2023-02-15T08:18:58;39.87;36.69;42.76;;
60031;Laerm;45901;47.600;9.890;2023-02-15T08:21:28;39.99;36.91;45.07;;
60031;Laerm;45901;47.600;9.890;2023-02-15T08:23:56;41.32;37.12;50.01;;
60031;Laerm;45901;47.600;9.890;2023-02-15T08:26:24;40.90;37.52;50.82;;
60031;Laerm;45901;47.600;9.890;2023-02-15T08:28:52;40.52;37.70;50.26;;
60031;Laerm;45901;47.600;9.890;2023-02-15T08:31:21;40.56;37.32;45.91;;
60031;Laerm;45901;47.600;9.890;2023-02-15T08:33:50;39.92;37.12;44.42;;
60031;Laerm;45901;47.600;9.890;2023-02-15T08:36:19;39.48;36.45;44.76;;
60031;Laerm;45901;47.600;9.890;2023-02-15T08:38:47;40.49;36.69;45.40;;
60031;Laerm;45901;47.600;9.890;2023-02-15T08:41:17;39.44;36.20;43.63;;
60031;Laerm;45901;47.600;9.890;2023-02-15T08:43:46;40.35;36.20;43.34;;
60031;Laerm;45901;47.600;9.890;2023-02-15T08:46:15;39.32;35.94;44.62;;
60031;Laerm;45901;47.600;9.890;2023-02-15T08:48:44;39.47;36.56;42.35;;
60031;Laerm;45901;47.600;9.890;2023-02-15T08:51:14;40.13;35.66;54.03;;
60031;Laerm;45901;47.600;9.890;2023-02-15T08:53:43;40.80;37.52;44.76;;
60031;Laerm;45901;47.600;9.890;2023-02-15T08:56:11;42.33;39.58;46.59;;
60031;Laerm;45901;47.600;9.890;2023-02-15T08:58:38;42.55;38.21;51.14;;
60031;Laerm;45901;47.600;9.890;2023-02-15T09:01:10;40.93;37.12;47.40;;
60031;Laerm;45901;47.600;9.890;2023-02-15T09:03:38;39.57;36.45;44.03;;
60031;Laerm;45901;47.600;9.890;2023-02-15T09:06:07;39.73;36.20;43.54;;
60031;Laerm;45901;47.600;9.890;2023-02-15T09:08:34;39.45;35.66;42.22;;
60031;Laerm;45901;47.600;9.890;2023-02-15T09:11:08;40.07;35.94;44.23;;
60031;Laerm;45901;47.600;9.890;2023-02-15T09:13:37;40.45;37.12;44.31;;
60031;Laerm;45901;47.600;9.890;2023-02-15T09:16:07;39.65;36.69;45.91;;
60031;Laerm;45901;47.600;9.890;2023-02-15T09:18:37;39.64;35.94;46.73;;
60031;Laerm;45901;47.600;9.890;2023-02-15T09:21:07;39.54;36.20;46.23;;
60031;Laerm;45901;47.600;9.890;2023-02-15T09:23:36;39.72;36.69;44.73;;
60031;Laerm;45901;47.600;9.890;2023-02-15T09:26:06;39.73;35.94;47.96;;
60031;Laerm;45901;47.600;9.890;2023-02-15T09:28:33;39.36;36.20;42.47;;
60031;Laerm;45901;47.600;9.890;2023-02-15T09:31:10;39.82;35.94;46.55;;
60031;Laerm;45901;47.600;9.890;2023-02-15T09:33:39;39.63;36.45;44.03;;
60031;Laerm;45901;47.600;9.890;2023-02-15T09:36:15;40.35;35.66;59.94;;
60031;Laerm;45901;47.600;9.890;2023-02-15T09:38:43;41.91;36.69;58.06;;
60031;Laerm;45901;47.600;9.890;2023-02-15T09:41:38;40.79;36.20;55.42;;
60031;Laerm;45901;47.600;9.890;2023-02-15T09:44:19;39.64;36.45;44.76;;
60031;Laerm;45901;47.600;9.890;2023-02-15T09:47:19;40.68;36.69;55.69;;
60031;Laerm;45901;47.600;9.890;2023-02-15T09:50:00;39.54;36.69;43.90;;
60031;Laerm;45901;47.600;9.890;2023-02-15T09:52:44;40.03;36.69;49.25;;
60031;Laerm;45901;47.600;9.890;2023-02-15T09:55:31;39.45;35.94;43.94;;
60031;Laerm;45901;47.600;9.890;2023-02-15T09:58:09;39.66;36.69;49.07;;
60031;Laerm;45901;47.600;9.890;2023-02-15T10:00:47;40.54;36.45;48.58;;
60031;Laerm;45901;47.600;9.890;2023-02-15T10:03:35;40.51;36.91;53.51;;
60031;Laerm;45901;47.600;9.890;2023-02-15T10:06:25;39.85;36.45;44.03;;
60031;Laerm;45901;47.600;9.890;2023-02-15T10:09:19;39.78;36.91;53.94;;
60031;Laerm;45901;47.600;9.890;2023-02-15T10:12:12;39.99;36.69;50.81;;
60031;Laerm;45901;47.600;9.890;2023-02-15T10:15:23;40.14;36.91;52.83;;
60031;Laerm;45901;47.600;9.890;2023-02-15T10:18:19;39.81;36.91;43.97;;
60031;Laerm;45901;47.600;9.890;2023-02-15T10:20:57;39.66;37.32;43.68;;
60031;Laerm;45901;47.600;9.890;2023-02-15T10:23:55;40.46;37.32;49.60;;
60031;Laerm;45901;47.600;9.890;2023-02-15T10:26:36;39.80;37.32;43.29;;
60031;Laerm;45901;47.600;9.890;2023-02-15T10:29:14;39.87;37.12;43.44;;
60031;Laerm;45901;47.600;9.890;2023-02-15T10:31:51;40.12;36.91;48.08;;
60031;Laerm;45901;47.600;9.890;2023-02-15T10:34:20;40.52;37.52;47.14;;
60031;Laerm;45901;47.600;9.890;2023-02-15T10:37:18;40.13;36.20;47.14;;
60031;Laerm;45901;47.600;9.890;2023-02-15T10:39:55;40.40;37.87;44.94;;
60031;Laerm;45901;47.600;9.890;2023-02-15T10:42:33;42.14;37.88;67.79;;
60031;Laerm;45901;47.600;9.890;2023-02-15T10:45:20;42.65;38.05;64.52;;
60031;Laerm;45901;47.600;9.890;2023-02-15T10:48:28;41.80;38.05;56.57;;
60031;Laerm;45901;47.600;9.890;2023-02-15T10:51:03;40.90;38.21;52.42;;
60031;Laerm;45901;47.600;9.890;2023-02-15T10:54:04;40.46;37.70;54.19;;
60031;Laerm;45901;47.600;9.890;2023-02-15T10:56:39;42.44;38.05;51.23;;
60031;Laerm;45901;47.600;9.890;2023-02-15T10:59:30;41.03;37.88;56.32;;
60031;Laerm;45901;47.600;9.890;2023-02-15T11:02:07;43.43;38.21;58.19;;
60031;Laerm;45901;47.600;9.890;2023-02-15T11:04:51;41.01;38.52;46.38;;
60031;Laerm;45901;47.600;9.890;2023-02-15T11:07:25;40.65;37.88;44.94;;
60031;Laerm;45901;47.600;9.890;2023-02-15T11:10:05;40.49;37.32;44.54;;
60031;Laerm;45901;47.600;9.890;2023-02-15T11:12:34;40.15;37.70;42.53;;
60031;Laerm;45901;47.600;9.890;2023-02-15T11:15:14;40.27;37.70;48.76;;
60031;Laerm;45901;47.600;9.890;2023-02-15T11:17:48;40.26;37.52;49.91;;
60031;Laerm;45901;47.600;9.890;2023-02-15T11:20:21;40.14;37.52;44.15;;
60031;Laerm;45901;47.600;9.890;2023-02-15T11:22:52;40.39;37.52;48.83;;
60031;Laerm;45901;47.600;9.890;2023-02-15T11:25:25;40.26;36.91;47.81;;
60031;Laerm;45901;47.600;9.890;2023-02-15T11:27:53;41.85;37.70;50.97;;
60031;Laerm;45901;47.600;9.890;2023-02-15T11:30:26;40.79;36.91;52.21;;
60031;Laerm;45901;47.600;9.890;2023-02-15T11:32:57;40.63;36.69;53.76;;
60031;Laerm;45901;47.600;9.890;2023-02-15T11:35:31;40.31;37.32;49.07;;
60031;Laerm;45901;47.600;9.890;2023-02-15T11:38:06;40.83;37.52;53.29;;
60031;Laerm;45901;47.600;9.890;2023-02-15T11:40:45;41.52;37.52;49.50;;
60031;Laerm;45901;47.600;9.890;2023-02-15T11:43:20;40.23;37.32;45.17;;
60031;Laerm;45901;47.600;9.890;2023-02-15T11:45:50;41.17;37.52;48.98;;
60031;Laerm;45901;47.600;9.890;2023-02-15T11:48:17;40.31;37.70;47.95;;
60031;Laerm;45901;47.600;9.890;2023-02-15T11:50:45;40.99;38.21;48.07;;
60031;Laerm;45901;47.600;9.890;2023-02-15T11:53:14;40.41;37.32;51.82;;
60031;Laerm;45901;47.600;9.890;2023-02-15T11:55:43;40.33;37.52;42.76;;
60031;Laerm;45901;47.600;9.890;2023-02-15T11:58:23;40.56;37.12;46.25;;
60031;Laerm;45901;47.600;9.890;2023-02-15T12:01:01;40.85;37.52;50.53;;
60031;Laerm;45901;47.600;9.890;2023-02-15T12:03:42;40.73;37.70;48.83;;
60031;Laerm;45901;47.600;9.890;2023-02-15T12:06:22;41.36;37.52;53.20;;
60031;Laerm;45901;47.600;9.890;2023-02-15T12:08:59;40.56;37.70;51.20;;
60031;Laerm;45901;47.600;9.890;2023-02-15T12:11:34;40.92;38.05;48.26;;
60031;Laerm;45901;47.600;9.890;2023-02-15T12:14:04;41.04;37.70;45.86;;
60031;Laerm;45901;47.600;9.890;2023-02-15T12:16:41;41.50;38.95;48.23;;
60031;Laerm;45901;47.600;9.890;2023-02-15T12:19:27;41.32;38.67;44.51;;
60031;Laerm;45901;47.600;9.890;2023-02-15T12:21:57;41.09;38.05;49.92;;
60031;Laerm;45901;47.600;9.890;2023-02-15T12:24:27;41.10;37.32;45.83;;
60031;Laerm;45901;47.600;9.890;2023-02-15T12:27:00;40.07;37.52;48.77;;
60031;Laerm;45901;47.600;9.890;2023-02-15T12:29:31;40.54;37.17;46.55;;
60031;Laerm;45901;47.600;9.890;2023-02-15T12:32:17;41.01;36.91;55.99;;
60031;Laerm;45901;47.600;9.890;2023-02-15T12:34:47;40.75;37.32;46.15;;
60031;Laerm;45901;47.600;9.890;2023-02-15T12:37:22;40.35;37.52;54.45;;
60031;Laerm;45901;47.600;9.890;2023-02-15T12:40:18;41.81;37.32;49.11;;
60031;Laerm;45901;47.600;9.890;2023-02-15T12:42:49;41.16;37.88;49.23;;
60031;Laerm;45901;47.600;9.890;2023-02-15T12:45:25;43.70;37.32;55.08;;
60031;Laerm;45901;47.600;9.890;2023-02-15T12:48:15;46.04;38.37;56.57;;
60031;Laerm;45901;47.600;9.890;2023-02-15T12:50:44;41.91;38.05;50.74;;
60031;Laerm;45901;47.600;9.890;2023-02-15T12:53:16;44.31;38.67;56.21;;
60031;Laerm;45901;47.600;9.890;2023-02-15T12:55:54;47.22;38.95;59.60;;
60031;Laerm;45901;47.600;9.890;2023-02-15T12:58:23;41.79;38.67;55.11;;
60031;Laerm;45901;47.600;9.890;2023-02-15T13:01:10;41.80;38.37;51.76;;
60031;Laerm;45901;47.600;9.890;2023-02-15T13:03:56;43.94;37.70;72.49;;
60031;Laerm;45901;47.600;9.890;2023-02-15T13:06:26;41.59;37.12;69.44;;
60031;Laerm;45901;47.600;9.890;2023-02-15T13:08:57;44.79;37.88;68.54;;
60031;Laerm;45901;47.600;9.890;2023-02-15T13:11:29;41.33;36.69;66.21;;
60031;Laerm;45901;47.600;9.890;2023-02-15T13:14:13;40.04;36.20;44.58;;
60031;Laerm;45901;47.600;9.890;2023-02-15T13:16:45;40.04;36.20;49.69;;
60031;Laerm;45901;47.600;9.890;2023-02-15T13:19:17;41.74;36.91;61.33;;
60031;Laerm;45901;47.600;9.890;2023-02-15T13:21:51;39.98;37.12;43.86;;
60031;Laerm;45901;47.600;9.890;2023-02-15T13:24:23;40.04;36.91;46.02;;
60031;Laerm;45901;47.600;9.890;2023-02-15T13:26:55;40.63;37.32;51.72;;
60031;Laerm;45901;47.600;9.890;2023-02-15T13:29:27;40.33;36.91;44.54;;
60031;Laerm;45901;47.600;9.890;2023-02-15T13:31:57;40.94;37.52;50.48;;
60031;Laerm;45901;47.600;9.890;2023-02-15T13:34:30;44.66;38.05;55.40;;
60031;Laerm;45901;47.600;9.890;2023-02-15T13:37:05;43.90;37.32;57.00;;
60031;Laerm;45901;47.600;9.890;2023-02-15T13:39:40;39.75;36.45;49.32;;
60031;Laerm;45901;47.600;9.890;2023-02-15T13:42:20;39.88;36.91;49.46;;
60031;Laerm;45901;47.600;9.890;2023-02-15T13:45:14;40.87;36.91;51.28;;
60031;Laerm;45901;47.600;9.890;2023-02-15T13:47:49;40.29;37.12;48.32;;
60031;Laerm;45901;47.600;9.890;2023-02-15T13:50:38;40.28;36.91;46.20;;
60031;Laerm;45901;47.600;9.890;2023-02-15T13:53:33;40.83;37.12;51.22;;
60031;Laerm;45901;47.600;9.890;2023-02-15T13:56:09;40.91;37.52;52.68;;
60031;Laerm;45901;47.600;9.890;2023-02-15T13:59:30;40.53;37.32;51.08;;
60031;Laerm;45901;47.600;9.890;2023-02-15T14:06:01;41.07;36.69;50.27;;
60031;Laerm;45901;47.600;9.890;2023-02-15T14:08:56;40.19;36.91;52.83;;
60031;Laerm;45901;47.600;9.890;2023-02-15T14:11:56;40.89;36.20;56.84;;
60031;Laerm;45901;47.600;9.890;2023-02-15T14:14:55;42.84;36.45;68.39;;
60031;Laerm;45901;47.600;9.890;2023-02-15T14:17:41;40.21;37.12;56.33;;
60031;Laerm;45901;47.600;9.890;2023-02-15T14:20:19;40.48;36.69;52.51;;
60031;Laerm;45901;47.600;9.890;2023-02-15T14:22:58;40.94;36.91;47.04;;
60031;Laerm;45901;47.600;9.890;2023-02-15T14:25:35;41.20;37.17;45.54;;